sensor_id;sensor_type;location;lat;lon;timestamp;pressure;altitude;pressure_sealevel;temperature;humidity
56038;BME280;41907;47.848;9.000;2022-10-30T00:01:19;96344.69;;;10.91;100.00
56038;BME280;41907;47.848;9.000;2022-10-30T00:03:44;96344.91;;;10.94;100.00
56038;BME280;41907;47.848;9.000;2022-10-30T00:06:09;96336.19;;;10.89;100.00
56038;BME280;41907;47.848;9.000;2022-10-30T00:08:35;96340.03;;;10.82;100.00
56038;BME280;41907;47.848;9.000;2022-10-30T00:11:07;96341.00;;;10.73;100.00
56038;BME280;41907;47.848;9.000;2022-10-30T00:13:33;96341.47;;;10.61;100.00
56038;BME280;41907;47.848;9.000;2022-10-30T00:16:02;96341.06;;;10.54;100.00
56038;BME280;41907;47.848;9.000;2022-10-30T00:18:28;96337.09;;;10.52;100.00
56038;BME280;41907;47.848;9.000;2022-10-30T00:20:53;96341.06;;;10.54;100.00
56038;BME280;41907;47.848;9.000;2022-10-30T00:23:19;96341.06;;;10.54;100.00
56038;BME280;41907;47.848;9.000;2022-10-30T00:25:44;96342.94;;;10.54;100.00
56038;BME280;41907;47.848;9.000;2022-10-30T00:28:09;96331.25;;;10.50;100.00
56038;BME280;41907;47.848;9.000;2022-10-30T00:30:35;96339.47;;;10.53;100.00
56038;BME280;41907;47.848;9.000;2022-10-30T00:33:00;96335.22;;;10.52;100.00
56038;BME280;41907;47.848;9.000;2022-10-30T00:35:26;96327.50;;;10.51;100.00
56038;BME280;41907;47.848;9.000;2022-10-30T00:37:51;96328.88;;;10.48;100.00
56038;BME280;41907;47.848;9.000;2022-10-30T00:40:17;96322.53;;;10.44;100.00
56038;BME280;41907;47.848;9.000;2022-10-30T00:42:42;96323.53;;;10.48;100.00
56038;BME280;41907;47.848;9.000;2022-10-30T00:45:11;96322.44;;;10.49;100.00
56038;BME280;41907;47.848;9.000;2022-10-30T00:47:39;96332.03;;;10.50;100.00
56038;BME280;41907;47.848;9.000;2022-10-30T00:50:25;96326.13;;;10.53;100.00
56038;BME280;41907;47.848;9.000;2022-10-30T00:52:55;96326.34;;;10.57;100.00
56038;BME280;41907;47.848;9.000;2022-10-30T00:55:26;96332.13;;;10.45;100.00
56038;BME280;41907;47.848;9.000;2022-10-30T00:57:52;96323.22;;;10.36;100.00
56038;BME280;41907;47.848;9.000;2022-10-30T01:00:19;96311.34;;;10.28;100.00
56038;BME280;41907;47.848;9.000;2022-10-30T01:02:46;96315.66;;;10.24;100.00
56038;BME280;41907;47.848;9.000;2022-10-30T01:05:15;96310.63;;;10.23;100.00
56038;BME280;41907;47.848;9.000;2022-10-30T01:07:42;96308.28;;;10.16;100.00
56038;BME280;41907;47.848;9.000;2022-10-30T01:10:08;96303.81;;;10.12;100.00
56038;BME280;41907;47.848;9.000;2022-10-30T01:12:34;96305.22;;;10.09;100.00
56038;BME280;41907;47.848;9.000;2022-10-30T01:15:00;96303.34;;;10.10;100.00
56038;BME280;41907;47.848;9.000;2022-10-30T01:23:06;96305.84;;;10.20;100.00
56038;BME280;41907;47.848;9.000;2022-10-30T01:35:00;96301.84;;;10.55;100.00
56038;BME280;41907;47.848;9.000;2022-10-30T01:37:34;96312.69;;;10.58;100.00
56038;BME280;41907;47.848;9.000;2022-10-30T01:40:12;96315.56;;;10.62;100.00
56038;BME280;41907;47.848;9.000;2022-10-30T01:42:48;96310.47;;;10.65;100.00
56038;BME280;41907;47.848;9.000;2022-10-30T01:45:23;96309.00;;;10.73;100.00
56038;BME280;41907;47.848;9.000;2022-10-30T01:59:14;96290.19;;;10.64;100.00
56038;BME280;41907;47.848;9.000;2022-10-30T02:01:42;96285.66;;;10.65;100.00
56038;BME280;41907;47.848;9.000;2022-10-30T02:04:08;96284.03;;;10.50;100.00
56038;BME280;41907;47.848;9.000;2022-10-30T02:06:35;96280.06;;;10.34;100.00
56038;BME280;41907;47.848;9.000;2022-10-30T02:09:02;96274.38;;;10.22;100.00
56038;BME280;41907;47.848;9.000;2022-10-30T02:11:28;96278.13;;;10.21;100.00
56038;BME280;41907;47.848;9.000;2022-10-30T02:13:56;96275.28;;;10.12;100.00
56038;BME280;41907;47.848;9.000;2022-10-30T02:16:22;96276.06;;;10.18;100.00
56038;BME280;41907;47.848;9.000;2022-10-30T02:18:47;96275.69;;;10.05;100.00
56038;BME280;41907;47.848;9.000;2022-10-30T02:21:13;96274.97;;;10.00;100.00
56038;BME280;41907;47.848;9.000;2022-10-30T02:23:38;96277.44;;;10.10;100.00
56038;BME280;41907;47.848;9.000;2022-10-30T02:26:04;96279.56;;;10.13;100.00
56038;BME280;41907;47.848;9.000;2022-10-30T02:28:29;96277.84;;;10.03;100.00
56038;BME280;41907;47.848;9.000;2022-10-30T02:30:54;96272.09;;;9.96;100.00
56038;BME280;41907;47.848;9.000;2022-10-30T02:33:20;96272.75;;;9.88;100.00
56038;BME280;41907;47.848;9.000;2022-10-30T02:35:45;96267.84;;;9.77;100.00
56038;BME280;41907;47.848;9.000;2022-10-30T02:38:10;96267.56;;;9.78;100.00
56038;BME280;41907;47.848;9.000;2022-10-30T02:40:36;96276.78;;;9.67;100.00
56038;BME280;41907;47.848;9.000;2022-10-30T02:43:01;96268.56;;;9.63;100.00
56038;BME280;41907;47.848;9.000;2022-10-30T02:45:26;96264.47;;;9.71;100.00
56038;BME280;41907;47.848;9.000;2022-10-30T02:47:52;96265.75;;;9.74;100.00
56038;BME280;41907;47.848;9.000;2022-10-30T02:50:18;96264.91;;;9.59;100.00
56038;BME280;41907;47.848;9.000;2022-10-30T02:52:44;96266.22;;;9.62;100.00
56038;BME280;41907;47.848;9.000;2022-10-30T02:55:09;96268.38;;;9.60;100.00
56038;BME280;41907;47.848;9.000;2022-10-30T02:57:35;96265.09;;;9.63;100.00
56038;BME280;41907;47.848;9.000;2022-10-30T03:00:00;96279.53;;;9.62;100.00
56038;BME280;41907;47.848;9.000;2022-10-30T03:02:25;96271.53;;;9.62;100.00
56038;BME280;41907;47.848;9.000;2022-10-30T03:04:51;96268.00;;;9.48;100.00
56038;BME280;41907;47.848;9.000;2022-10-30T03:07:16;96277.47;;;9.35;100.00
56038;BME280;41907;47.848;9.000;2022-10-30T03:09:41;96280.75;;;9.27;100.00
56038;BME280;41907;47.848;9.000;2022-10-30T03:12:07;96283.69;;;9.25;100.00
56038;BME280;41907;47.848;9.000;2022-10-30T03:14:32;96279.69;;;9.28;100.00
56038;BME280;41907;47.848;9.000;2022-10-30T03:16:57;96275.94;;;9.29;100.00
56038;BME280;41907;47.848;9.000;2022-10-30T03:19:23;96272.22;;;9.30;100.00
56038;BME280;41907;47.848;9.000;2022-10-30T03:21:48;96278.09;;;9.27;100.00
56038;BME280;41907;47.848;9.000;2022-10-30T03:24:13;96270.63;;;9.29;100.00
56038;BME280;41907;47.848;9.000;2022-10-30T03:26:39;96275.13;;;9.10;100.00
56038;BME280;41907;47.848;9.000;2022-10-30T03:29:04;96270.31;;;9.12;100.00
56038;BME280;41907;47.848;9.000;2022-10-30T03:31:30;96273.03;;;9.07;100.00
56038;BME280;41907;47.848;9.000;2022-10-30T03:33:56;96272.75;;;9.08;100.00
56038;BME280;41907;47.848;9.000;2022-10-30T03:36:23;96278.56;;;9.10;100.00
56038;BME280;41907;47.848;9.000;2022-10-30T03:38:49;96279.81;;;9.18;100.00
56038;BME280;41907;47.848;9.000;2022-10-30T03:41:15;96282.97;;;9.20;100.00
56038;BME280;41907;47.848;9.000;2022-10-30T03:43:40;96274.88;;;9.30;100.00
56038;BME280;41907;47.848;9.000;2022-10-30T03:46:05;96281.63;;;9.22;100.00
56038;BME280;41907;47.848;9.000;2022-10-30T03:48:30;96275.63;;;9.12;100.00
56038;BME280;41907;47.848;9.000;2022-10-30T03:50:57;96281.25;;;9.10;100.00
56038;BME280;41907;47.848;9.000;2022-10-30T03:53:23;96270.66;;;9.05;100.00
56038;BME280;41907;47.848;9.000;2022-10-30T03:55:51;96283.22;;;9.00;100.00
56038;BME280;41907;47.848;9.000;2022-10-30T03:58:16;96277.97;;;8.94;100.00
56038;BME280;41907;47.848;9.000;2022-10-30T04:00:42;96276.09;;;8.95;100.00
56038;BME280;41907;47.848;9.000;2022-10-30T04:03:08;96282.94;;;9.01;100.00
56038;BME280;41907;47.848;9.000;2022-10-30T04:05:34;96283.50;;;8.98;100.00
56038;BME280;41907;47.848;9.000;2022-10-30T04:08:02;96285.88;;;9.00;100.00
56038;BME280;41907;47.848;9.000;2022-10-30T04:10:28;96282.38;;;9.04;100.00
56038;BME280;41907;47.848;9.000;2022-10-30T04:13:01;96288.94;;;9.12;100.00
56038;BME280;41907;47.848;9.000;2022-10-30T04:15:26;96289.91;;;9.21;100.00
56038;BME280;41907;47.848;9.000;2022-10-30T04:17:52;96287.75;;;9.23;100.00
56038;BME280;41907;47.848;9.000;2022-10-30T04:20:18;96279.25;;;9.21;100.00
56038;BME280;41907;47.848;9.000;2022-10-30T04:22:44;96278.50;;;9.15;100.00
56038;BME280;41907;47.848;9.000;2022-10-30T04:25:10;96279.72;;;9.04;100.00
56038;BME280;41907;47.848;9.000;2022-10-30T04:27:43;96277.22;;;9.13;100.00
56038;BME280;41907;47.848;9.000;2022-10-30T04:30:10;96272.78;;;9.27;100.00
56038;BME280;41907;47.848;9.000;2022-10-30T04:32:44;96274.81;;;9.35;100.00
56038;BME280;41907;47.848;9.000;2022-10-30T04:35:09;96276.06;;;9.43;100.00
56038;BME280;41907;47.848;9.000;2022-10-30T04:37:34;96275.81;;;9.39;100.00
56038;BME280;41907;47.848;9.000;2022-10-30T04:40:00;96271.69;;;9.28;100.00
56038;BME280;41907;47.848;9.000;2022-10-30T04:42:25;96275.50;;;9.22;100.00
56038;BME280;41907;47.848;9.000;2022-10-30T04:44:50;96277.91;;;9.23;100.00
56038;BME280;41907;47.848;9.000;2022-10-30T04:47:16;96272.06;;;9.21;100.00
56038;BME280;41907;47.848;9.000;2022-10-30T04:49:41;96269.69;;;9.20;100.00
56038;BME280;41907;47.848;9.000;2022-10-30T04:52:07;96274.72;;;9.21;100.00
56038;BME280;41907;47.848;9.000;2022-10-30T04:54:32;96256.59;;;9.23;100.00
56038;BME280;41907;47.848;9.000;2022-10-30T04:56:57;96259.84;;;8.96;100.00
56038;BME280;41907;47.848;9.000;2022-10-30T04:59:23;96254.66;;;8.86;100.00
56038;BME280;41907;47.848;9.000;2022-10-30T05:01:48;96257.53;;;8.90;100.00
56038;BME280;41907;47.848;9.000;2022-10-30T05:04:13;96269.41;;;8.98;100.00
56038;BME280;41907;47.848;9.000;2022-10-30T05:06:39;96270.09;;;9.08;100.00
56038;BME280;41907;47.848;9.000;2022-10-30T05:09:04;96268.28;;;9.04;100.00
56038;BME280;41907;47.848;9.000;2022-10-30T05:11:29;96268.97;;;9.14;100.00
56038;BME280;41907;47.848;9.000;2022-10-30T05:13:55;96262.34;;;9.12;100.00
56038;BME280;41907;47.848;9.000;2022-10-30T05:16:20;96254.19;;;9.03;100.00
56038;BME280;41907;47.848;9.000;2022-10-30T05:18:45;96252.16;;;8.95;100.00
56038;BME280;41907;47.848;9.000;2022-10-30T05:21:11;96250.22;;;9.01;100.00
56038;BME280;41907;47.848;9.000;2022-10-30T05:23:36;96249.38;;;9.05;100.00
56038;BME280;41907;47.848;9.000;2022-10-30T05:26:02;96253.03;;;9.09;100.00
56038;BME280;41907;47.848;9.000;2022-10-30T05:28:27;96247.19;;;9.07;100.00
56038;BME280;41907;47.848;9.000;2022-10-30T05:30:53;96242.25;;;9.01;100.00
56038;BME280;41907;47.848;9.000;2022-10-30T05:33:18;96239.78;;;8.85;100.00
56038;BME280;41907;47.848;9.000;2022-10-30T05:35:43;96238.63;;;8.68;100.00
56038;BME280;41907;47.848;9.000;2022-10-30T05:38:09;96238.22;;;8.55;100.00
56038;BME280;41907;47.848;9.000;2022-10-30T05:40:35;96239.53;;;8.58;100.00
56038;BME280;41907;47.848;9.000;2022-10-30T05:43:01;96251.41;;;8.66;100.00
56038;BME280;41907;47.848;9.000;2022-10-30T05:45:26;96243.97;;;8.68;100.00
56038;BME280;41907;47.848;9.000;2022-10-30T05:47:55;96246.41;;;8.59;100.00
56038;BME280;41907;47.848;9.000;2022-10-30T05:50:21;96238.22;;;8.55;100.00
56038;BME280;41907;47.848;9.000;2022-10-30T05:52:46;96246.25;;;8.50;100.00
56038;BME280;41907;47.848;9.000;2022-10-30T05:55:11;96243.03;;;8.53;100.00
56038;BME280;41907;47.848;9.000;2022-10-30T05:57:37;96245.88;;;8.62;100.00
56038;BME280;41907;47.848;9.000;2022-10-30T06:00:03;96245.50;;;8.69;100.00
56038;BME280;41907;47.848;9.000;2022-10-30T06:02:28;96237.34;;;8.65;100.00
56038;BME280;41907;47.848;9.000;2022-10-30T06:04:54;96246.38;;;8.64;100.00
56038;BME280;41907;47.848;9.000;2022-10-30T06:07:19;96245.34;;;8.60;100.00
56038;BME280;41907;47.848;9.000;2022-10-30T06:09:44;96256.28;;;8.58;100.00
56038;BME280;41907;47.848;9.000;2022-10-30T06:12:10;96243.09;;;8.72;100.00
56038;BME280;41907;47.848;9.000;2022-10-30T06:14:35;96247.06;;;8.75;100.00
56038;BME280;41907;47.848;9.000;2022-10-30T06:17:00;96247.75;;;8.85;100.00
56038;BME280;41907;47.848;9.000;2022-10-30T06:19:26;96248.13;;;8.74;100.00
56038;BME280;41907;47.848;9.000;2022-10-30T06:21:51;96247.16;;;8.88;100.00
56038;BME280;41907;47.848;9.000;2022-10-30T06:24:18;96247.94;;;8.89;100.00
56038;BME280;41907;47.848;9.000;2022-10-30T06:26:44;96244.00;;;8.86;100.00
56038;BME280;41907;47.848;9.000;2022-10-30T06:29:09;96240.31;;;8.82;100.00
56038;BME280;41907;47.848;9.000;2022-10-30T06:31:34;96246.03;;;8.94;100.00
56038;BME280;41907;47.848;9.000;2022-10-30T06:34:00;96246.22;;;9.03;100.00
56038;BME280;41907;47.848;9.000;2022-10-30T06:36:25;96244.53;;;9.07;100.00
56038;BME280;41907;47.848;9.000;2022-10-30T06:38:50;96238.66;;;9.10;100.00
56038;BME280;41907;47.848;9.000;2022-10-30T06:41:16;96239.88;;;9.18;100.00
56038;BME280;41907;47.848;9.000;2022-10-30T06:43:41;96239.47;;;9.29;100.00
56038;BME280;41907;47.848;9.000;2022-10-30T06:46:06;96240.13;;;9.40;100.00
56038;BME280;41907;47.848;9.000;2022-10-30T06:48:32;96238.41;;;9.68;100.00
56038;BME280;41907;47.848;9.000;2022-10-30T06:50:59;96246.13;;;10.02;100.00
56038;BME280;41907;47.848;9.000;2022-10-30T06:53:25;96241.25;;;10.41;100.00
56038;BME280;41907;47.848;9.000;2022-10-30T06:55:58;96244.16;;;11.00;100.00
56038;BME280;41907;47.848;9.000;2022-10-30T06:58:25;96235.44;;;11.71;100.00
56038;BME280;41907;47.848;9.000;2022-10-30T07:00:50;96240.91;;;12.55;100.00
56038;BME280;41907;47.848;9.000;2022-10-30T07:03:16;96242.50;;;13.35;100.00
56038;BME280;41907;47.848;9.000;2022-10-30T07:05:42;96236.69;;;14.11;100.00
56038;BME280;41907;47.848;9.000;2022-10-30T07:08:07;96242.78;;;14.55;100.00
56038;BME280;41907;47.848;9.000;2022-10-30T07:10:33;96243.53;;;14.81;99.26
56038;BME280;41907;47.848;9.000;2022-10-30T07:12:58;96241.00;;;14.76;98.77
56038;BME280;41907;47.848;9.000;2022-10-30T07:15:24;96247.72;;;14.99;98.28
56038;BME280;41907;47.848;9.000;2022-10-30T07:17:59;96242.25;;;15.46;94.88
56038;BME280;41907;47.848;9.000;2022-10-30T07:20:27;96257.00;;;15.90;92.09
56038;BME280;41907;47.848;9.000;2022-10-30T07:22:53;96250.75;;;15.98;92.49
56038;BME280;41907;47.848;9.000;2022-10-30T07:25:18;96255.91;;;16.24;91.29
56038;BME280;41907;47.848;9.000;2022-10-30T07:27:48;96262.97;;;16.82;88.79
56038;BME280;41907;47.848;9.000;2022-10-30T07:30:16;96257.97;;;17.17;85.53
56038;BME280;41907;47.848;9.000;2022-10-30T07:32:42;96269.06;;;17.76;83.65
56038;BME280;41907;47.848;9.000;2022-10-30T07:35:09;96252.59;;;18.34;78.52
56038;BME280;41907;47.848;9.000;2022-10-30T07:37:36;96253.25;;;18.86;77.33
56038;BME280;41907;47.848;9.000;2022-10-30T07:40:01;96252.41;;;19.80;71.80
56038;BME280;41907;47.848;9.000;2022-10-30T07:42:27;96263.00;;;19.69;71.81
56038;BME280;41907;47.848;9.000;2022-10-30T07:44:52;96265.38;;;18.92;73.95
56038;BME280;41907;47.848;9.000;2022-10-30T07:47:18;96272.38;;;18.10;78.62
56038;BME280;41907;47.848;9.000;2022-10-30T07:49:43;96263.66;;;18.29;80.01
56038;BME280;41907;47.848;9.000;2022-10-30T07:52:08;96262.50;;;18.85;75.44
56038;BME280;41907;47.848;9.000;2022-10-30T07:54:34;96270.63;;;19.83;73.38
56038;BME280;41907;47.848;9.000;2022-10-30T07:56:59;96268.34;;;20.39;70.39
56038;BME280;41907;47.848;9.000;2022-10-30T07:59:25;96265.75;;;20.08;70.93
56038;BME280;41907;47.848;9.000;2022-10-30T08:01:50;96270.53;;;20.15;70.38
56038;BME280;41907;47.848;9.000;2022-10-30T08:04:16;96269.47;;;20.00;71.51
56038;BME280;41907;47.848;9.000;2022-10-30T08:06:42;96274.63;;;19.54;74.88
56038;BME280;41907;47.848;9.000;2022-10-30T08:09:07;96269.72;;;19.95;72.92
56038;BME280;41907;47.848;9.000;2022-10-30T08:11:33;96278.78;;;20.37;69.40
56038;BME280;41907;47.848;9.000;2022-10-30T08:13:58;96280.38;;;20.61;67.54
56038;BME280;41907;47.848;9.000;2022-10-30T08:16:24;96280.19;;;20.93;68.30
56038;BME280;41907;47.848;9.000;2022-10-30T08:18:49;96282.03;;;21.31;65.15
56038;BME280;41907;47.848;9.000;2022-10-30T08:21:15;96280.06;;;21.08;65.33
56038;BME280;41907;47.848;9.000;2022-10-30T08:23:40;96281.44;;;21.67;65.26
56038;BME280;41907;47.848;9.000;2022-10-30T08:26:05;96281.47;;;22.23;64.84
56038;BME280;41907;47.848;9.000;2022-10-30T08:28:31;96283.13;;;22.65;61.59
56038;BME280;41907;47.848;9.000;2022-10-30T08:30:57;96282.34;;;22.31;64.02
56038;BME280;41907;47.848;9.000;2022-10-30T08:33:23;96284.97;;;23.31;61.30
56038;BME280;41907;47.848;9.000;2022-10-30T08:35:49;96277.94;;;23.78;61.10
56038;BME280;41907;47.848;9.000;2022-10-30T08:38:15;96272.19;;;23.87;59.39
56038;BME280;41907;47.848;9.000;2022-10-30T08:40:42;96281.22;;;23.47;60.63
56038;BME280;41907;47.848;9.000;2022-10-30T08:43:08;96276.75;;;22.84;63.39
56038;BME280;41907;47.848;9.000;2022-10-30T08:45:34;96277.50;;;23.21;62.49
56038;BME280;41907;47.848;9.000;2022-10-30T08:48:01;96267.16;;;22.60;64.32
56038;BME280;41907;47.848;9.000;2022-10-30T08:50:31;96274.88;;;22.58;64.42
56038;BME280;41907;47.848;9.000;2022-10-30T08:53:02;96263.66;;;22.59;65.36
56038;BME280;41907;47.848;9.000;2022-10-30T08:55:32;96275.69;;;22.28;64.96
56038;BME280;41907;47.848;9.000;2022-10-30T08:57:58;96271.41;;;21.71;68.23
56038;BME280;41907;47.848;9.000;2022-10-30T09:00:24;96273.13;;;21.83;69.62
56038;BME280;41907;47.848;9.000;2022-10-30T09:02:49;96270.88;;;22.15;69.20
56038;BME280;41907;47.848;9.000;2022-10-30T09:05:15;96262.88;;;22.59;66.97
56038;BME280;41907;47.848;9.000;2022-10-30T09:07:40;96262.25;;;23.10;64.29
56038;BME280;41907;47.848;9.000;2022-10-30T09:10:06;96259.34;;;23.91;63.03
56038;BME280;41907;47.848;9.000;2022-10-30T09:12:31;96257.09;;;25.11;58.33
56038;BME280;41907;47.848;9.000;2022-10-30T09:14:57;96261.81;;;25.46;55.84
56038;BME280;41907;47.848;9.000;2022-10-30T09:17:22;96257.09;;;24.97;58.88
56038;BME280;41907;47.848;9.000;2022-10-30T09:19:48;96255.13;;;25.86;56.78
56038;BME280;41907;47.848;9.000;2022-10-30T09:22:13;96264.13;;;25.16;57.33
56038;BME280;41907;47.848;9.000;2022-10-30T09:24:38;96275.06;;;25.62;57.28
56038;BME280;41907;47.848;9.000;2022-10-30T09:27:04;96271.16;;;25.81;56.90
56038;BME280;41907;47.848;9.000;2022-10-30T09:29:30;96266.88;;;25.73;56.58
56038;BME280;41907;47.848;9.000;2022-10-30T09:31:56;96266.47;;;25.49;56.70
56038;BME280;41907;47.848;9.000;2022-10-30T09:34:22;96264.13;;;25.23;57.85
56038;BME280;41907;47.848;9.000;2022-10-30T09:36:47;96261.00;;;25.07;58.55
56038;BME280;41907;47.848;9.000;2022-10-30T09:39:14;96267.25;;;25.46;58.09
56038;BME280;41907;47.848;9.000;2022-10-30T09:57:57;96268.28;;;23.88;63.72
56038;BME280;41907;47.848;9.000;2022-10-30T10:00:35;96274.66;;;24.06;63.58
56038;BME280;41907;47.848;9.000;2022-10-30T10:03:05;96272.13;;;24.56;62.42
56038;BME280;41907;47.848;9.000;2022-10-30T10:05:50;96270.34;;;25.20;59.87
56038;BME280;41907;47.848;9.000;2022-10-30T10:08:21;96273.81;;;26.06;57.43
56038;BME280;41907;47.848;9.000;2022-10-30T10:10:57;96276.13;;;27.16;55.22
56038;BME280;41907;47.848;9.000;2022-10-30T10:13:32;96278.06;;;28.08;51.20
56038;BME280;41907;47.848;9.000;2022-10-30T10:16:02;96274.97;;;29.04;47.86
56038;BME280;41907;47.848;9.000;2022-10-30T10:18:34;96277.50;;;29.92;45.77
56038;BME280;41907;47.848;9.000;2022-10-30T10:21:09;96276.34;;;30.13;42.55
56038;BME280;41907;47.848;9.000;2022-10-30T10:23:49;96274.38;;;28.90;46.00
56038;BME280;41907;47.848;9.000;2022-10-30T10:26:26;96278.53;;;28.40;47.66
56038;BME280;41907;47.848;9.000;2022-10-30T10:31:29;96269.56;;;25.94;53.26
56038;BME280;41907;47.848;9.000;2022-10-30T10:34:26;96270.34;;;25.20;56.05
56038;BME280;41907;47.848;9.000;2022-10-30T10:37:08;96262.44;;;24.65;57.25
56038;BME280;41907;47.848;9.000;2022-10-30T10:40:37;96266.00;;;23.93;59.84
56038;BME280;41907;47.848;9.000;2022-10-30T10:45:26;96254.38;;;25.15;57.25
56038;BME280;41907;47.848;9.000;2022-10-30T10:53:21;96253.66;;;27.83;49.52
56038;BME280;41907;47.848;9.000;2022-10-30T10:55:51;96249.28;;;28.27;47.74
56038;BME280;41907;47.848;9.000;2022-10-30T10:58:35;96248.06;;;28.62;46.74
56038;BME280;41907;47.848;9.000;2022-10-30T11:01:05;96248.13;;;28.88;46.33
56038;BME280;41907;47.848;9.000;2022-10-30T11:06:18;96247.22;;;28.00;46.58
56038;BME280;41907;47.848;9.000;2022-10-30T11:08:46;96249.34;;;28.54;46.10
56038;BME280;41907;47.848;9.000;2022-10-30T11:11:11;96234.44;;;28.85;45.90
56038;BME280;41907;47.848;9.000;2022-10-30T11:13:39;96249.31;;;29.41;43.43
56038;BME280;41907;47.848;9.000;2022-10-30T11:16:28;96242.41;;;29.76;42.69
56038;BME280;41907;47.848;9.000;2022-10-30T11:19:01;96234.63;;;29.51;42.07
56038;BME280;41907;47.848;9.000;2022-10-30T11:21:30;96237.22;;;28.51;43.08
56038;BME280;41907;47.848;9.000;2022-10-30T11:23:57;96237.31;;;28.44;45.36
56038;BME280;41907;47.848;9.000;2022-10-30T11:26:26;96231.81;;;28.44;45.06
56038;BME280;41907;47.848;9.000;2022-10-30T11:31:42;96227.53;;;27.27;46.98
56038;BME280;41907;47.848;9.000;2022-10-30T11:36:46;96214.50;;;26.86;48.17
56038;BME280;41907;47.848;9.000;2022-10-30T11:39:23;96227.84;;;25.76;51.12
56038;BME280;41907;47.848;9.000;2022-10-30T11:42:04;96213.38;;;25.57;52.91
56038;BME280;41907;47.848;9.000;2022-10-30T11:44:36;96213.41;;;25.50;52.64
56038;BME280;41907;47.848;9.000;2022-10-30T11:47:03;96208.75;;;25.19;53.38
56038;BME280;41907;47.848;9.000;2022-10-30T11:52:09;96210.31;;;25.06;55.80
56038;BME280;41907;47.848;9.000;2022-10-30T11:54:39;96208.72;;;25.40;54.93
56038;BME280;41907;47.848;9.000;2022-10-30T11:57:19;96207.88;;;24.62;56.11
56038;BME280;41907;47.848;9.000;2022-10-30T11:59:46;96207.44;;;24.38;57.46
56038;BME280;41907;47.848;9.000;2022-10-30T12:02:25;96201.63;;;23.64;60.12
56038;BME280;41907;47.848;9.000;2022-10-30T12:04:55;96190.03;;;23.78;60.68
56038;BME280;41907;47.848;9.000;2022-10-30T12:07:31;96194.53;;;24.28;60.33
56038;BME280;41907;47.848;9.000;2022-10-30T12:09:56;96191.50;;;24.51;59.71
56038;BME280;41907;47.848;9.000;2022-10-30T12:14:49;96192.34;;;24.91;58.25
56038;BME280;41907;47.848;9.000;2022-10-30T12:17:16;96190.81;;;24.97;57.31
56038;BME280;41907;47.848;9.000;2022-10-30T12:19:50;96186.50;;;24.96;57.23
56038;BME280;41907;47.848;9.000;2022-10-30T12:22:26;96186.78;;;24.34;58.51
56038;BME280;41907;47.848;9.000;2022-10-30T12:24:52;96182.66;;;23.89;59.26
56038;BME280;41907;47.848;9.000;2022-10-30T12:27:18;96179.75;;;22.98;62.05
56038;BME280;41907;47.848;9.000;2022-10-30T12:32:25;96175.00;;;22.88;64.36
56038;BME280;41907;47.848;9.000;2022-10-30T12:34:58;96177.16;;;22.72;66.68
56038;BME280;41907;47.848;9.000;2022-10-30T12:37:36;96174.63;;;22.90;64.73
56038;BME280;41907;47.848;9.000;2022-10-30T12:40:19;96168.06;;;22.57;65.36
56038;BME280;41907;47.848;9.000;2022-10-30T12:45:46;96169.91;;;22.09;66.57
56038;BME280;41907;47.848;9.000;2022-10-30T12:48:32;96170.50;;;21.96;66.60
56038;BME280;41907;47.848;9.000;2022-10-30T12:51:13;96165.84;;;21.96;67.39
56038;BME280;41907;47.848;9.000;2022-10-30T12:56:24;96157.63;;;21.89;67.28
56038;BME280;41907;47.848;9.000;2022-10-30T12:59:08;96162.28;;;21.92;66.22
56038;BME280;41907;47.848;9.000;2022-10-30T13:01:54;96161.50;;;21.88;67.37
56038;BME280;41907;47.848;9.000;2022-10-30T13:04:25;96161.50;;;21.88;67.81
56038;BME280;41907;47.848;9.000;2022-10-30T13:10:00;96145.56;;;21.86;66.56
56038;BME280;41907;47.848;9.000;2022-10-30T13:12:33;96160.38;;;21.63;67.84
56038;BME280;41907;47.848;9.000;2022-10-30T13:15:09;96153.47;;;21.39;70.07
56038;BME280;41907;47.848;9.000;2022-10-30T13:17:38;96152.25;;;21.36;71.49
56038;BME280;41907;47.848;9.000;2022-10-30T13:20:11;96152.34;;;21.43;71.46
56038;BME280;41907;47.848;9.000;2022-10-30T13:22:48;96142.63;;;21.16;72.87
56038;BME280;41907;47.848;9.000;2022-10-30T13:27:51;96151.09;;;21.11;74.19
56038;BME280;41907;47.848;9.000;2022-10-30T13:30:22;96151.03;;;21.07;74.80
56038;BME280;41907;47.848;9.000;2022-10-30T13:35:50;96145.25;;;21.09;74.12
56038;BME280;41907;47.848;9.000;2022-10-30T13:38:29;96141.16;;;20.96;73.84
56038;BME280;41907;47.848;9.000;2022-10-30T13:51:38;96142.88;;;20.81;77.14
56038;BME280;41907;47.848;9.000;2022-10-30T13:54:11;96144.38;;;20.78;77.22
56038;BME280;41907;47.848;9.000;2022-10-30T13:56:39;96145.72;;;20.65;75.93
56038;BME280;41907;47.848;9.000;2022-10-30T14:04:35;96145.06;;;20.72;78.14
56038;BME280;41907;47.848;9.000;2022-10-30T14:09:39;96145.25;;;20.83;76.26
56038;BME280;41907;47.848;9.000;2022-10-30T14:15:19;96145.88;;;20.99;75.73
56038;BME280;41907;47.848;9.000;2022-10-30T14:19:10;96148.47;;;20.92;75.32
56038;BME280;41907;47.848;9.000;2022-10-30T14:21:37;96143.66;;;20.82;75.40
56038;BME280;41907;47.848;9.000;2022-10-30T14:24:20;96149.59;;;20.64;77.72
56038;BME280;41907;47.848;9.000;2022-10-30T14:29:36;96141.78;;;20.86;78.05
56038;BME280;41907;47.848;9.000;2022-10-30T14:35:21;96141.38;;;20.84;77.97
56038;BME280;41907;47.848;9.000;2022-10-30T14:40:36;96142.34;;;20.72;78.52
56038;BME280;41907;47.848;9.000;2022-10-30T14:43:58;96138.25;;;20.59;79.33
56038;BME280;41907;47.848;9.000;2022-10-30T14:46:16;96141.16;;;20.47;80.90
56038;BME280;41907;47.848;9.000;2022-10-30T14:48:51;96137.38;;;20.32;82.87
56038;BME280;41907;47.848;9.000;2022-10-30T14:51:21;96142.66;;;20.25;83.24
56038;BME280;41907;47.848;9.000;2022-10-30T14:53:57;96140.63;;;20.18;84.65
56038;BME280;41907;47.848;9.000;2022-10-30T14:56:54;96138.84;;;20.06;85.26
56038;BME280;41907;47.848;9.000;2022-10-30T14:59:31;96138.94;;;19.91;86.67